createdAt,value
2018-04-23T00:00:50.463Z,15.60
2018-04-23T00:03:18.068Z,14.80
2018-04-23T00:05:45.732Z,10.20
2018-04-23T00:08:13.318Z,15.37
2018-04-23T00:10:40.924Z,20.40
2018-04-23T00:13:08.585Z,12.13
2018-04-23T00:15:36.202Z,16.77
2018-04-23T00:18:03.808Z,17.30
2018-04-23T00:20:31.451Z,10.40
2018-04-23T00:22:59.161Z,12.03
2018-04-23T00:25:26.793Z,16.30
2018-04-23T00:27:54.543Z,13.80
2018-04-23T00:30:22.147Z,11.37
2018-04-23T00:32:49.794Z,9.53
2018-04-23T00:35:17.717Z,12.33
2018-04-23T00:37:45.381Z,15.63
2018-04-23T00:40:13.059Z,12.87
2018-04-23T00:42:40.737Z,18.13
2018-04-23T00:45:08.337Z,14.10
2018-04-23T00:47:35.995Z,16.07
2018-04-23T00:50:03.703Z,12.97
2018-04-23T00:52:31.288Z,9.73
2018-04-23T00:54:59.051Z,11.70
2018-04-23T00:57:26.675Z,11.00
2018-04-23T00:59:54.350Z,15.53
2018-04-23T01:02:21.937Z,36.23
2018-04-23T01:04:49.569Z,9.63
2018-04-23T01:07:17.249Z,13.87
2018-04-23T01:09:44.945Z,18.27
2018-04-23T01:12:12.729Z,10.77
2018-04-23T01:14:40.376Z,10.23
2018-04-23T01:17:08.018Z,14.63
2018-04-23T01:19:35.632Z,18.13
2018-04-23T01:22:03.247Z,14.23
2018-04-23T01:24:30.896Z,13.10
2018-04-23T01:26:58.553Z,13.93
2018-04-23T01:29:26.189Z,10.70
2018-04-23T01:31:53.845Z,13.73
2018-04-23T01:34:21.507Z,12.90
2018-04-23T01:36:49.162Z,10.70
2018-04-23T01:39:16.743Z,14.10
2018-04-23T01:41:44.423Z,10.30
2018-04-23T01:44:12.049Z,10.80
2018-04-23T01:46:39.686Z,10.37
2018-04-23T01:49:07.332Z,16.20
2018-04-23T01:51:34.990Z,14.40
2018-04-23T01:54:02.662Z,10.50
2018-04-23T01:56:30.275Z,13.50
2018-04-23T01:58:57.875Z,14.77
2018-04-23T02:01:25.537Z,18.03
2018-04-23T02:03:53.134Z,18.50
2018-04-23T02:06:20.766Z,12.37
2018-04-23T02:08:48.421Z,13.90
2018-04-23T02:11:16.031Z,13.03
2018-04-23T02:13:43.697Z,11.47
2018-04-23T02:16:11.338Z,10.83
2018-04-23T02:18:39.006Z,16.50
2018-04-23T02:21:06.639Z,14.10
2018-04-23T02:23:34.277Z,14.10
2018-04-23T02:26:01.954Z,13.30
2018-04-23T02:28:29.566Z,12.63
2018-04-23T02:30:57.204Z,10.80
2018-04-23T02:33:24.810Z,21.37
2018-04-23T02:35:52.496Z,15.27
2018-04-23T02:38:20.105Z,15.43
2018-04-23T02:40:47.769Z,19.60
2018-04-23T02:43:15.398Z,14.07
2018-04-23T02:45:43.071Z,12.63
2018-04-23T02:48:10.699Z,16.07
2018-04-23T02:50:38.361Z,13.10
2018-04-23T02:53:06.025Z,18.63
2018-04-23T02:55:33.687Z,23.40
2018-04-23T02:58:01.351Z,14.83
2018-04-23T03:00:29.006Z,16.93
2018-04-23T03:02:56.699Z,17.60
2018-04-23T03:05:24.323Z,11.40
2018-04-23T03:07:51.988Z,16.10
2018-04-23T03:10:19.579Z,11.33
2018-04-23T03:12:47.224Z,20.00
2018-04-23T03:15:14.882Z,36.27
2018-04-23T03:17:42.557Z,22.83
2018-04-23T03:20:10.152Z,17.90
2018-04-23T03:22:37.840Z,14.57
2018-04-23T03:25:05.523Z,14.77
2018-04-23T03:27:34.251Z,12.47
2018-04-23T03:30:01.857Z,17.70
2018-04-23T03:32:29.500Z,14.13
2018-04-23T03:34:57.131Z,16.30
2018-04-23T03:37:24.802Z,20.60
2018-04-23T03:39:52.435Z,14.23
2018-04-23T03:42:20.158Z,21.53
2018-04-23T03:44:47.772Z,14.60
2018-04-23T03:47:15.532Z,14.53
2018-04-23T03:49:43.190Z,15.07
2018-04-23T03:52:10.847Z,13.37
2018-04-23T03:54:38.460Z,11.30
2018-04-23T03:57:06.119Z,15.80
2018-04-23T03:59:33.777Z,14.40
2018-04-23T04:02:01.396Z,13.30
2018-04-23T04:04:29.079Z,19.87
2018-04-23T04:06:56.703Z,13.83
2018-04-23T04:09:24.397Z,13.77
2018-04-23T04:11:52.084Z,13.30
2018-04-23T04:14:31.556Z,16.27
2018-04-23T04:16:59.378Z,25.43
2018-04-23T04:19:27.047Z,18.60
2018-04-23T04:21:54.742Z,15.60
2018-04-23T04:24:22.375Z,14.90
2018-04-23T04:26:50.049Z,29.70
2018-04-23T04:29:17.661Z,34.07
2018-04-23T04:31:45.322Z,26.90
2018-04-23T04:34:13.008Z,23.07
2018-04-23T04:36:40.648Z,22.23
2018-04-23T04:39:09.143Z,21.97
2018-04-23T04:41:36.797Z,24.40
2018-04-23T04:44:04.452Z,15.20
2018-04-23T04:46:32.073Z,15.43
2018-04-23T04:48:59.742Z,18.27
2018-04-23T04:51:27.386Z,80.70
2018-04-23T04:53:55.054Z,95.57
2018-04-23T04:56:22.731Z,30.27
2018-04-23T04:58:50.347Z,18.03
2018-04-23T05:01:18.070Z,17.80
2018-04-23T05:03:46.012Z,27.00
2018-04-23T05:06:13.633Z,27.33
2018-04-23T05:08:41.445Z,20.87
2018-04-23T05:11:09.145Z,19.50
2018-04-23T05:13:36.784Z,27.73
2018-04-23T05:16:04.525Z,22.13
2018-04-23T05:18:32.176Z,16.90
2018-04-23T05:20:59.838Z,12.83
2018-04-23T05:23:27.503Z,19.17
2018-04-23T05:25:55.471Z,33.17
2018-04-23T05:28:23.144Z,17.70
2018-04-23T05:30:50.754Z,15.13
2018-04-23T05:33:18.363Z,12.77
2018-04-23T05:35:46.007Z,16.23
2018-04-23T05:38:13.688Z,16.67
2018-04-23T05:40:41.403Z,33.43
2018-04-23T05:43:09.067Z,20.63
2018-04-23T05:45:36.672Z,20.30
2018-04-23T05:48:04.330Z,23.90
2018-04-23T05:50:31.992Z,31.23
2018-04-23T05:52:59.620Z,18.60
2018-04-23T05:55:27.298Z,28.40
2018-04-23T05:57:54.954Z,25.83
2018-04-23T06:00:22.577Z,37.47
2018-04-23T06:02:50.245Z,28.97
2018-04-23T06:05:17.835Z,33.17
2018-04-23T06:07:45.416Z,19.43
2018-04-23T06:10:13.079Z,20.90
2018-04-23T06:12:40.698Z,21.53
2018-04-23T06:15:08.395Z,11.97
2018-04-23T06:17:36.012Z,20.77
2018-04-23T06:20:03.700Z,17.83
2018-04-23T06:22:31.324Z,20.20
2018-04-23T06:24:59.118Z,27.43
2018-04-23T06:27:26.785Z,26.70
2018-04-23T06:29:54.473Z,27.30
2018-04-23T06:32:22.144Z,18.07
2018-04-23T06:34:49.756Z,33.07
2018-04-23T06:37:17.422Z,29.50
2018-04-23T06:39:45.030Z,20.97
2018-04-23T06:42:12.685Z,14.23
2018-04-23T06:44:40.609Z,20.33
2018-04-23T06:47:08.399Z,26.67
2018-04-23T06:49:36.017Z,19.50
2018-04-23T06:52:03.669Z,36.70
2018-04-23T06:54:32.056Z,20.83
2018-04-23T06:56:59.651Z,18.77
2018-04-23T06:59:27.352Z,21.20
2018-04-23T07:01:54.962Z,14.07
2018-04-23T07:04:22.624Z,12.10
2018-04-23T07:06:50.287Z,18.57
2018-04-23T07:09:17.949Z,11.67
2018-04-23T07:11:45.612Z,20.10
2018-04-23T07:14:13.252Z,15.40
2018-04-23T07:16:41.072Z,20.03
2018-04-23T07:19:08.659Z,16.60
2018-04-23T07:21:36.783Z,14.33
2018-04-23T07:24:04.410Z,16.80
2018-04-23T07:26:32.117Z,15.33
2018-04-23T07:28:59.816Z,15.70
2018-04-23T07:31:27.500Z,17.43
2018-04-23T07:33:55.117Z,14.83
2018-04-23T07:36:22.750Z,15.43
2018-04-23T07:38:50.426Z,13.73
2018-04-23T07:41:18.053Z,13.13
2018-04-23T07:43:45.731Z,22.23
2018-04-23T07:46:13.393Z,14.20
2018-04-23T07:48:41.388Z,13.57
2018-04-23T07:51:09.022Z,14.63
2018-04-23T07:53:36.726Z,17.17
2018-04-23T07:56:04.337Z,13.17
2018-04-23T07:58:31.976Z,15.40
2018-04-23T08:00:59.648Z,17.93
2018-04-23T08:03:28.478Z,14.00
2018-04-23T08:05:56.541Z,16.57
2018-04-23T08:08:24.259Z,11.70
2018-04-23T08:10:51.922Z,29.80
2018-04-23T08:13:19.537Z,22.07
2018-04-23T08:15:47.240Z,15.93
2018-04-23T08:18:14.891Z,26.90
2018-04-23T08:20:42.592Z,18.93
2018-04-23T08:23:10.276Z,21.43
2018-04-23T08:25:37.927Z,14.27
2018-04-23T08:28:06.266Z,12.93
2018-04-23T08:30:33.921Z,18.60
2018-04-23T08:33:01.758Z,13.17
2018-04-23T08:35:29.411Z,15.47
2018-04-23T08:37:57.335Z,15.60
2018-04-23T08:40:24.969Z,10.03
2018-04-23T08:42:52.654Z,12.50
2018-04-23T08:45:20.289Z,15.40
2018-04-23T08:47:47.946Z,12.97
2018-04-23T08:50:15.568Z,12.37
2018-04-23T08:52:43.287Z,21.63
2018-04-23T08:55:10.993Z,18.60
2018-04-23T08:57:38.691Z,13.23
2018-04-23T09:00:06.370Z,13.50
2018-04-23T09:02:34.044Z,12.77
2018-04-23T09:05:01.681Z,14.50
2018-04-23T09:07:29.341Z,13.37
2018-04-23T09:09:57.024Z,12.10
2018-04-23T09:12:24.704Z,14.13
2018-04-23T09:14:52.399Z,13.50
2018-04-23T09:17:20.049Z,8.80
2018-04-23T09:19:48.412Z,17.10
2018-04-23T09:22:16.109Z,17.50
2018-04-23T09:24:43.826Z,11.67
2018-04-23T09:27:11.488Z,11.93
2018-04-23T09:29:39.119Z,9.60
2018-04-23T09:32:06.812Z,10.80
2018-04-23T09:34:35.370Z,9.57
2018-04-23T09:37:03.008Z,9.83
2018-04-23T09:39:30.592Z,9.03
2018-04-23T09:41:58.253Z,12.43
2018-04-23T09:44:26.010Z,14.10
2018-04-23T09:46:53.613Z,11.23
2018-04-23T09:49:21.268Z,21.93
2018-04-23T09:51:48.884Z,9.20
2018-04-23T09:54:16.514Z,23.97
2018-04-23T09:56:44.177Z,11.93
2018-04-23T09:59:11.845Z,5.87
2018-04-23T10:01:45.119Z,13.33
2018-04-23T10:04:12.842Z,9.30
2018-04-23T10:06:40.488Z,8.90
2018-04-23T10:09:08.143Z,5.70
2018-04-23T10:11:35.819Z,5.60
2018-04-23T10:14:03.481Z,5.83
2018-04-23T10:16:31.189Z,4.60
2018-04-23T10:18:58.899Z,5.90
2018-04-23T10:21:26.954Z,6.30
2018-04-23T10:23:54.595Z,9.23
2018-04-23T10:26:22.301Z,6.93
2018-04-23T10:28:49.921Z,4.00
2018-04-23T10:31:17.534Z,9.27
2018-04-23T10:33:45.176Z,7.50
2018-04-23T10:36:12.935Z,5.33
2018-04-23T10:38:40.630Z,8.80
2018-04-23T10:41:08.254Z,4.87
2018-04-23T10:43:35.907Z,5.60
2018-04-23T10:46:03.566Z,9.00
2018-04-23T10:48:31.183Z,7.10
2018-04-23T10:50:58.848Z,11.03
2018-04-23T10:53:26.467Z,8.70
2018-04-23T10:55:54.149Z,5.70
2018-04-23T10:58:21.775Z,9.40
2018-04-23T11:00:49.436Z,9.53
2018-04-23T11:03:17.032Z,5.43
2018-04-23T11:05:44.697Z,6.20
2018-04-23T11:08:12.324Z,9.83
2018-04-23T11:10:39.965Z,5.67
2018-04-23T11:13:07.595Z,8.13
2018-04-23T11:15:35.255Z,10.00
2018-04-23T11:18:02.910Z,4.00
2018-04-23T11:20:30.543Z,4.67
2018-04-23T11:22:58.226Z,7.13
2018-04-23T11:25:25.855Z,14.60
2018-04-23T11:27:53.583Z,5.80
2018-04-23T11:30:22.205Z,11.30
2018-04-23T11:32:49.868Z,7.13
2018-04-23T11:35:17.490Z,5.40
2018-04-23T11:37:45.156Z,6.63
2018-04-23T11:40:12.809Z,7.40
2018-04-23T11:42:40.469Z,4.60
2018-04-23T11:45:08.152Z,8.57
2018-04-23T11:47:35.847Z,9.93
2018-04-23T11:50:03.499Z,7.53
2018-04-23T11:52:31.219Z,7.33
2018-04-23T11:54:58.840Z,5.40
2018-04-23T11:57:26.555Z,5.20
2018-04-23T11:59:54.497Z,9.23
2018-04-23T12:02:22.133Z,6.63
2018-04-23T12:04:49.799Z,7.17
2018-04-23T12:07:17.507Z,8.80
2018-04-23T12:09:45.199Z,8.47
2018-04-23T12:12:12.806Z,9.47
2018-04-23T12:14:40.498Z,5.13
2018-04-23T12:17:08.168Z,12.63
2018-04-23T12:19:35.829Z,8.57
2018-04-23T12:22:03.561Z,6.53
2018-04-23T12:24:31.265Z,8.87
2018-04-23T12:26:58.875Z,4.30
2018-04-23T12:29:26.612Z,4.57
2018-04-23T12:31:54.310Z,5.70
2018-04-23T12:34:22.732Z,10.70
2018-04-23T12:36:50.366Z,9.17
2018-04-23T12:39:19.016Z,6.40
2018-04-23T12:41:46.629Z,11.33
2018-04-23T12:44:15.219Z,9.00
2018-04-23T12:46:43.290Z,8.37
2018-04-23T12:49:10.998Z,5.53
2018-04-23T12:51:38.665Z,9.93
2018-04-23T12:54:06.364Z,12.50
2018-04-23T12:56:34.188Z,8.73
2018-04-23T12:59:01.829Z,17.07
2018-04-23T13:01:30.829Z,6.43
2018-04-23T13:03:58.573Z,4.00
2018-04-23T13:06:26.606Z,5.00
2018-04-23T13:08:55.536Z,5.70
2018-04-23T13:11:23.240Z,9.43
2018-04-23T13:13:50.878Z,3.70
2018-04-23T13:16:19.219Z,8.23
2018-04-23T13:18:46.976Z,4.77
2018-04-23T13:21:14.760Z,5.27
2018-04-23T13:23:42.442Z,4.87
2018-04-23T13:26:10.134Z,5.67
2018-04-23T13:28:37.825Z,14.30
2018-04-23T13:31:06.290Z,12.63
2018-04-23T13:33:33.967Z,5.27
2018-04-23T13:36:01.767Z,5.60
2018-04-23T13:38:29.434Z,7.83
2018-04-23T13:40:57.151Z,4.20
2018-04-23T13:43:25.385Z,8.43
2018-04-23T13:45:52.979Z,5.17
2018-04-23T13:48:20.702Z,18.07
2018-04-23T13:50:48.379Z,6.67
2018-04-23T13:53:16.050Z,33.60
2018-04-23T13:55:43.689Z,16.20
2018-04-23T13:58:11.369Z,4.10
2018-04-23T14:00:39.045Z,7.83
2018-04-23T14:03:06.786Z,11.03
2018-04-23T14:05:34.508Z,24.30
2018-04-23T14:08:02.159Z,7.83
2018-04-23T14:10:29.855Z,4.93
2018-04-23T14:12:57.517Z,8.73
2018-04-23T14:15:25.219Z,4.73
2018-04-23T14:17:52.856Z,7.33
2018-04-23T14:20:20.509Z,3.97
2018-04-23T14:22:48.183Z,5.90
2018-04-23T14:25:15.825Z,6.00
2018-04-23T14:27:43.498Z,16.57
2018-04-23T14:30:11.174Z,8.10
2018-04-23T14:32:38.869Z,4.50
2018-04-23T14:35:06.556Z,9.37
2018-04-23T14:37:34.232Z,5.20
2018-04-23T14:40:01.843Z,5.63
2018-04-23T14:42:29.500Z,5.30
2018-04-23T14:44:57.120Z,4.53
2018-04-23T14:47:24.712Z,3.50
2018-04-23T14:49:52.367Z,12.33
2018-04-23T14:52:20.005Z,3.80
2018-04-23T14:54:47.602Z,3.50
2018-04-23T14:57:15.288Z,4.97
2018-04-23T14:59:42.897Z,7.10
2018-04-23T15:02:10.676Z,22.50
2018-04-23T15:04:38.304Z,6.20
2018-04-23T15:07:07.227Z,7.43
2018-04-23T15:09:34.943Z,7.60
2018-04-23T15:12:02.655Z,13.60
2018-04-23T15:14:30.285Z,6.53
2018-04-23T15:16:57.932Z,3.33
2018-04-23T15:19:26.729Z,3.50
2018-04-23T15:21:54.414Z,5.10
2018-04-23T15:24:22.111Z,5.10
2018-04-23T15:26:49.864Z,7.83
2018-04-23T15:29:17.585Z,6.77
2018-04-23T15:31:45.249Z,6.60
2018-04-23T15:34:12.950Z,4.17
2018-04-23T15:36:40.601Z,9.30
2018-04-23T15:39:08.338Z,5.70
2018-04-23T15:41:35.956Z,2.80
2018-04-23T15:44:03.728Z,6.53
2018-04-23T15:46:31.376Z,6.37
2018-04-23T15:48:59.027Z,4.13
2018-04-23T15:51:26.797Z,6.40
2018-04-23T15:53:54.459Z,4.57
2018-04-23T15:56:22.142Z,7.10
2018-04-23T15:58:49.850Z,4.60
2018-04-23T16:01:17.560Z,9.53
2018-04-23T16:03:45.260Z,7.13
2018-04-23T16:06:12.911Z,6.60
2018-04-23T16:08:40.637Z,8.90
2018-04-23T16:11:08.354Z,5.43
2018-04-23T16:13:35.983Z,4.77
2018-04-23T16:16:03.656Z,11.00
2018-04-23T16:18:31.342Z,6.83
2018-04-23T16:20:58.975Z,6.93
2018-04-23T16:23:26.896Z,8.77
2018-04-23T16:25:54.538Z,11.67
2018-04-23T16:28:22.225Z,4.17
2018-04-23T16:30:49.837Z,4.50
2018-04-23T16:33:17.509Z,10.20
2018-04-23T16:35:45.591Z,10.57
2018-04-23T16:38:14.498Z,8.80
2018-04-23T16:40:42.108Z,21.97
2018-04-23T16:43:09.781Z,5.60
2018-04-23T16:45:38.873Z,3.80
2018-04-23T16:48:07.636Z,8.10
2018-04-23T16:50:35.459Z,9.53
2018-04-23T16:53:03.180Z,5.50
2018-04-23T16:55:30.824Z,7.90
2018-04-23T16:57:58.652Z,23.77
2018-04-23T17:00:26.331Z,5.90
2018-04-23T17:02:53.973Z,8.73
2018-04-23T17:05:21.825Z,11.90
2018-04-23T17:07:49.515Z,5.37
2018-04-23T17:10:17.216Z,10.70
2018-04-23T17:12:44.964Z,3.10
2018-04-23T17:15:12.664Z,8.53
2018-04-23T17:17:40.300Z,14.17
2018-04-23T17:20:08.988Z,13.13
2018-04-23T17:22:36.693Z,5.30
2018-04-23T17:25:04.456Z,6.27
2018-04-23T17:27:32.132Z,6.33
2018-04-23T17:30:00.042Z,6.30
2018-04-23T17:32:27.668Z,5.73
2018-04-23T17:34:55.452Z,10.23
2018-04-23T17:37:23.149Z,10.73
2018-04-23T17:39:50.856Z,14.33
2018-04-23T17:42:18.561Z,5.60
2018-04-23T17:44:46.246Z,12.87
2018-04-23T17:47:14.094Z,7.63
2018-04-23T17:49:41.831Z,6.03
2018-04-23T17:52:09.486Z,10.40
2018-04-23T17:54:37.176Z,17.73
2018-04-23T17:57:04.901Z,10.03
2018-04-23T17:59:32.634Z,6.10
2018-04-23T18:02:00.358Z,9.33
2018-04-23T18:04:28.331Z,7.53
2018-04-23T18:06:56.026Z,6.80
2018-04-23T18:09:23.727Z,5.53
2018-04-23T18:11:51.800Z,6.63
2018-04-23T18:14:19.566Z,7.80
2018-04-23T18:16:47.271Z,5.63
2018-04-23T18:19:14.986Z,4.47
2018-04-23T18:21:42.646Z,12.00
2018-04-23T18:24:10.362Z,10.53
2018-04-23T18:26:38.000Z,13.47
2018-04-23T18:29:05.679Z,6.40
2018-04-23T18:31:33.456Z,11.53
2018-04-23T18:34:01.193Z,15.50
2018-04-23T18:36:29.966Z,11.10
2018-04-23T18:38:57.594Z,7.33
2018-04-23T18:41:25.298Z,15.40
2018-04-23T18:43:53.021Z,10.30
2018-04-23T18:46:20.648Z,5.43
2018-04-23T18:48:48.337Z,7.50
2018-04-23T18:51:15.997Z,6.70
2018-04-23T18:53:43.695Z,22.83
2018-04-23T18:56:11.403Z,5.60
2018-04-23T18:58:39.063Z,11.33
2018-04-23T19:01:06.705Z,10.40
2018-04-23T19:03:34.348Z,8.10
2018-04-23T19:06:01.958Z,8.50
2018-04-23T19:08:29.628Z,5.00
2018-04-23T19:10:57.369Z,13.80
2018-04-23T19:13:24.949Z,6.80
2018-04-23T19:15:52.574Z,7.63
2018-04-23T19:18:20.960Z,9.03
2018-04-23T19:20:48.698Z,5.50
2018-04-23T19:23:17.473Z,5.40
2018-04-23T19:25:45.142Z,8.57
2018-04-23T19:28:13.050Z,7.80
2018-04-23T19:30:40.884Z,10.80
2018-04-23T19:33:08.598Z,3.93
2018-04-23T19:35:36.272Z,13.07
2018-04-23T19:38:03.958Z,7.80
2018-04-23T19:40:31.762Z,5.60
2018-04-23T19:42:59.450Z,8.53
2018-04-23T19:45:27.281Z,6.10
2018-04-23T19:47:55.232Z,3.70
2018-04-23T19:50:22.912Z,9.27
2018-04-23T19:52:51.612Z,7.23
2018-04-23T19:55:19.788Z,15.03
2018-04-23T19:57:47.543Z,5.77
2018-04-23T20:00:16.992Z,4.70
2018-04-23T20:02:45.128Z,6.13
2018-04-23T20:05:13.815Z,6.00
2018-04-23T20:07:41.580Z,5.23
2018-04-23T20:10:09.491Z,9.20
2018-04-23T20:12:37.309Z,9.50
2018-04-23T20:15:05.075Z,10.93
2018-04-23T20:17:32.786Z,8.17
2018-04-23T20:20:00.444Z,7.00
2018-04-23T20:22:28.130Z,17.33
2018-04-23T20:24:55.832Z,6.03
2018-04-23T20:27:25.651Z,7.93
2018-04-23T20:29:53.345Z,12.90
2018-04-23T20:32:21.101Z,6.30
2018-04-23T20:34:48.794Z,17.80
2018-04-23T20:37:17.009Z,7.33
2018-04-23T20:39:45.128Z,4.90
2018-04-23T20:42:12.852Z,6.63
2018-04-23T20:44:40.584Z,14.53
2018-04-23T20:47:08.278Z,15.10
2018-04-23T20:49:36.216Z,10.07
2018-04-23T20:52:03.936Z,15.60
2018-04-23T20:54:31.567Z,23.53
2018-04-23T20:56:59.348Z,10.10
2018-04-23T20:59:26.981Z,9.53
2018-04-23T21:01:54.877Z,6.03
2018-04-23T21:04:22.523Z,7.93
2018-04-23T21:06:50.173Z,4.70
2018-04-23T21:09:17.830Z,4.40
2018-04-23T21:11:45.436Z,2.83
2018-04-23T21:14:13.104Z,10.70
2018-04-23T21:16:40.816Z,3.07
2018-04-23T21:19:08.460Z,10.17
2018-04-23T21:21:36.091Z,7.30
2018-04-23T21:24:03.812Z,7.73
2018-04-23T21:26:31.413Z,4.60
2018-04-23T21:28:59.078Z,8.03
2018-04-23T21:31:26.679Z,7.40
2018-04-23T21:33:54.357Z,5.20
2018-04-23T21:36:22.109Z,3.17
2018-04-23T21:38:49.790Z,12.27
2018-04-23T21:41:17.441Z,11.70
2018-04-23T21:43:45.131Z,4.90
2018-04-23T21:46:13.555Z,8.20
2018-04-23T21:48:41.281Z,5.50
2018-04-23T21:51:08.911Z,4.00
2018-04-23T21:53:36.563Z,2.80
2018-04-23T21:56:04.947Z,6.80
2018-04-23T21:58:32.683Z,8.50
2018-04-23T22:01:00.575Z,7.73
2018-04-23T22:03:28.240Z,4.07
2018-04-23T22:05:55.912Z,7.37
2018-04-23T22:08:23.553Z,6.33
2018-04-23T22:10:51.243Z,11.43
2018-04-23T22:13:18.836Z,5.90
2018-04-23T22:15:46.479Z,17.77
2018-04-23T22:18:14.166Z,5.57
2018-04-23T22:20:41.798Z,3.20
2018-04-23T22:23:09.463Z,9.20
2018-04-23T22:25:37.078Z,5.33
2018-04-23T22:28:04.780Z,10.67
2018-04-23T22:30:32.440Z,4.07
2018-04-23T22:33:00.022Z,3.10
2018-04-23T22:35:27.684Z,13.03
2018-04-23T22:37:55.409Z,11.60
2018-04-23T22:40:23.046Z,2.20
2018-04-23T22:42:50.704Z,6.90
2018-04-23T22:45:18.358Z,6.63
2018-04-23T22:47:47.152Z,8.53
2018-04-23T22:50:16.077Z,2.87
2018-04-23T22:52:43.852Z,3.17
2018-04-23T22:55:11.504Z,9.40
2018-04-23T22:57:39.110Z,10.53
2018-04-23T23:00:06.762Z,5.67
2018-04-23T23:02:34.372Z,7.73
2018-04-23T23:05:01.982Z,4.73
2018-04-23T23:07:29.613Z,9.23
2018-04-23T23:09:57.247Z,3.67
2018-04-23T23:12:24.921Z,4.83
2018-04-23T23:14:52.564Z,13.03
2018-04-23T23:17:20.231Z,7.03
2018-04-23T23:19:47.876Z,5.13
2018-04-23T23:22:15.451Z,3.27
2018-04-23T23:24:43.145Z,9.83
2018-04-23T23:27:10.806Z,4.70
2018-04-23T23:29:38.395Z,5.40
2018-04-23T23:32:06.665Z,6.67
2018-04-23T23:34:34.314Z,4.40
2018-04-23T23:37:01.889Z,16.60
2018-04-23T23:39:29.547Z,9.37
2018-04-23T23:41:57.599Z,8.43
2018-04-23T23:44:25.309Z,9.17
2018-04-23T23:46:52.904Z,12.00
2018-04-23T23:49:20.540Z,14.90
2018-04-23T23:51:48.175Z,8.40
2018-04-23T23:54:15.803Z,8.43
2018-04-23T23:56:43.483Z,8.53
2018-04-23T23:59:11.140Z,9.30
